Knierim, IA (50552)

4:10 PM CDT on August 23, 2016 (GMT -0500)
IEM | | Change Station

Elev 1209 ft 42.50 °N, 94.36 °W | Updated 21 minutes ago

Overcast
Overcast
77 °F
Feels Like 79 °F
N
0
Wind Variable Wind from SE
Gusts 0.0 mph

Today
High -- | Low -- °F
--% Chance of Precip.
Yesterday
High -- | Low -- °F
Precip. -- in
Pressure 29.92 in
Visibility 10.0 miles
Clouds Mostly Cloudy 2800 ft
Overcast 3500 ft
Heat Index 79 °F
Dew Point 70 °F
Humidity 78%
Rainfall in
Snow Depth Not available.
6:33 AM 8:05 PM
Waning Gibbous, 64% visible
METAR KFOD 232055Z AUTO 16007G16KT 10SM BKN028 OVC035 26/20 A2992 RMK AO1 LTG DSNT W 57017
Pressure 29.92 in
Visibility 10.0 miles
Clouds Mostly Cloudy 2800 ft
Overcast 3500 ft
Heat Index 79 °F
Dew Point 70 °F
Humidity 78%
Rainfall in
Snow Depth Not available.
6:33 AM 8:05 PM
Waning Gibbous, 64% visible
METAR KFOD 232055Z AUTO 16007G16KT 10SM BKN028 OVC035 26/20 A2992 RMK AO1 LTG DSNT W 57017

10-Day Weather Forecast

Almanac

Astronomy

Aug. 23, 2016 Rise Set
Actual Time
Civil Twilight
Nautical Twilight
Astronomical Twilight
Moon
Length of Visible Light
Length of Day
Tomorrow will be .
, % of the Moon is Illuminated

Today's Extremes

State Highs State Lows

Community

WunderPhotos

Upload Photos

1,934,455 photos uploaded!

WunderBlog® & News

Nearby

Air Quality

  Air Quality AQ Index Pollutant
Not available.

Snow Depth

Station Depth Elevation

Earthquake Activity

City Distance Mag. Time & Date
Minimum magnitude displayed is 2.5.

Coastal Water Temperatures

Place Temperature

Stations

Nearby Weather Stations

Station Location Temp. Windchill Dew Point Humidity Wind Precip. Elev Updated Type
                   

Watches & Warnings

There are currently no watches in effect.